Terminal Aerodrome Forecast
Issued by NWS Rapid City, SD

Home | Current Version | Previous Version | Text Only | Print | Product List | Glossary On
Versions: 1 2 3 4 5 6 7 8 9 10 11 12 13 14 15 16 17 18 19 20 21 22 23 24 25
685
FTUS43 KUNR 071720
TAFRAP
TAF
KRAP 071720Z 0718/0818 34022G32KT P6SM BKN040
      TEMPO 0718/0720 BKN025
     FM080000 33010KT P6SM SCT100=

USA.gov is the U.S. government's official web portal to all federal, state and local government web resources and services.